Time;durP1;ratioP1;P1;durP2;ratioP2;P2;SDS_P1;SDS_P2;PMS_P1;PMS_P2;Temp;Humidity;BMP_temperature;BMP_pressure;BME280_temperature;BME280_humidity;BME280_pressure;Samples;Min_cycle;Max_cycle;Signal;HPM_P1;HPM_P2
2022/01/20 00:00:17;;;;;;;12.90;3.20;;;8.90;87.60;;;;;;4996245;28;20022;-78
2022/01/20 00:02:43;;;;;;;14.15;3.40;;;8.90;87.50;;;;;;4978460;28;20130;-79
2022/01/20 00:05:26;;;;;;;14.13;4.07;;;8.90;87.50;;;;;;4978578;28;20022;-79
2022/01/20 00:26:55;;;;;;;11.50;3.60;;;8.90;87.30;;;;;;4995841;28;20057;-78
2022/01/20 00:29:32;;;;;;;10.27;2.97;;;8.90;87.30;;;;;;4978308;28;20081;-77
2022/01/20 00:32:17;;;;;;;13.93;3.28;;;8.90;87.30;;;;;;4977808;28;20030;-78
2022/01/20 00:37:38;;;;;;;15.07;3.30;;;8.90;87.20;;;;;;4978050;28;20636;-78
2022/01/20 00:40:04;;;;;;;13.20;2.70;;;8.90;87.30;;;;;;4978033;28;20061;-78
2022/01/20 00:42:30;;;;;;;13.45;2.92;;;8.90;87.30;;;;;;4977644;28;20041;-77
2022/01/20 00:44:55;;;;;;;11.80;2.58;;;8.90;87.30;;;;;;4977818;28;20030;-77
2022/01/20 00:47:22;;;;;;;14.63;3.28;;;8.80;87.20;;;;;;4977635;28;20030;-78
2022/01/20 00:49:48;;;;;;;15.35;3.22;;;8.90;87.30;;;;;;4977746;28;20034;-78
2022/01/20 00:52:14;;;;;;;11.85;2.72;;;8.80;87.10;;;;;;4994901;28;20018;-77
2022/01/20 00:54:40;;;;;;;15.18;3.25;;;8.90;87.20;;;;;;4977621;28;20577;-78
2022/01/20 00:57:06;;;;;;;14.02;3.00;;;8.80;87.10;;;;;;4994663;28;20023;-78
2022/01/20 00:59:31;;;;;;;15.57;3.22;;;8.90;87.10;;;;;;4977551;28;20061;-77
2022/01/20 01:02:00;;;;;;;13.65;2.72;;;8.90;87.20;;;;;;4994695;28;20094;-77
2022/01/20 01:04:27;;;;;;;14.88;3.25;;;8.90;87.20;;;;;;4977350;28;20037;-77
2022/01/20 01:09:25;;;;;;;11.98;2.80;;;8.80;87.00;;;;;;4995199;28;20030;-77
2022/01/20 01:11:53;;;;;;;15.38;3.00;;;8.90;87.00;;;;;;4994402;28;20037;-78
2022/01/20 01:14:20;;;;;;;14.68;3.10;;;8.90;87.00;;;;;;4977265;28;20031;-77
2022/01/20 01:22:20;;;;;;;11.10;2.65;;;8.90;87.00;;;;;;4994602;28;20176;-78
2022/01/20 01:24:52;;;;;;;14.23;2.90;;;8.80;87.00;;;;;;4977248;28;20026;-78
2022/01/20 01:27:19;;;;;;;10.93;3.00;;;8.80;87.00;;;;;;4994430;28;20030;-77
2022/01/20 01:32:59;;;;;;;11.18;3.05;;;8.90;87.00;;;;;;4994480;28;20026;-78
2022/01/20 01:35:21;;;;;;;13.73;3.00;;;8.90;86.90;;;;;;4991230;28;20030;-78
2022/01/20 01:40:45;;;;;;;14.23;3.03;;;8.80;87.10;;;;;;4960750;28;20401;-78
2022/01/20 01:43:17;;;;;;;12.43;2.70;;;8.90;87.10;;;;;;4994050;28;20018;-78
2022/01/20 01:45:43;;;;;;;15.25;3.55;;;8.80;87.10;;;;;;4976645;28;20029;-77
2022/01/20 01:48:09;;;;;;;8.98;2.80;;;8.80;87.00;;;;;;4976670;28;20023;-77
2022/01/20 01:50:35;;;;;;;14.63;3.35;;;8.80;87.00;;;;;;4993746;28;20037;-80
2022/01/20 01:53:06;;;;;;;12.75;2.95;;;8.80;87.00;;;;;;4976413;28;20496;-78
2022/01/20 01:55:33;;;;;;;15.30;3.05;;;8.80;87.00;;;;;;4976339;28;20027;-78
2022/01/20 01:57:58;;;;;;;13.02;2.80;;;8.90;87.10;;;;;;4993754;28;20661;-78
2022/01/20 02:00:24;;;;;;;14.02;3.22;;;8.80;87.00;;;;;;4976598;28;20031;-78
2022/01/20 02:02:50;;;;;;;10.32;2.47;;;8.80;87.00;;;;;;4993504;28;20022;-78
2022/01/20 02:05:17;;;;;;;14.10;2.83;;;8.80;87.00;;;;;;4976479;28;20556;-78
2022/01/20 02:19:09;;;;;;;10.05;2.22;;;8.80;87.00;;;;;;4993554;28;20056;-77
2022/01/20 02:21:50;;;;;;;10.93;2.40;;;8.80;87.00;;;;;;4975821;28;20049;-78
2022/01/20 02:24:15;;;;;;;12.88;2.78;;;8.80;87.00;;;;;;4976100;28;20482;-78
2022/01/20 02:26:41;;;;;;;11.98;2.53;;;8.80;87.00;;;;;;4975918;28;20038;-77
2022/01/20 02:29:07;;;;;;;12.77;2.50;;;8.80;87.00;;;;;;4993278;28;20457;-78
2022/01/20 02:31:32;;;;;;;9.80;2.25;;;8.80;87.00;;;;;;4975644;28;20421;-78
2022/01/20 02:33:58;;;;;;;9.75;2.25;;;8.80;87.00;;;;;;4993392;28;20465;-77
2022/01/20 02:36:24;;;;;;;9.93;2.45;;;8.80;86.90;;;;;;4976042;28;20028;-78
2022/01/20 02:38:56;;;;;;;9.50;2.05;;;8.80;86.90;;;;;;4993070;28;20030;-77
2022/01/20 02:46:50;;;;;;;8.70;2.03;;;8.80;86.80;;;;;;4993281;28;20567;-77
2022/01/20 02:49:17;;;;;;;10.50;2.72;;;8.80;86.80;;;;;;4975656;28;20258;-78
2022/01/20 02:51:51;;;;;;;10.20;2.15;;;8.80;86.80;;;;;;4975426;28;20026;-77
2022/01/20 02:54:17;;;;;;;8.93;2.08;;;8.80;86.70;;;;;;4992919;28;20544;-77
2022/01/20 02:56:43;;;;;;;11.35;2.30;;;8.80;86.70;;;;;;4975364;28;20057;-78
2022/01/20 02:59:09;;;;;;;9.77;2.15;;;8.80;86.80;;;;;;4993055;28;20374;-78
2022/01/20 03:01:35;;;;;;;11.75;2.60;;;8.80;86.70;;;;;;4975353;28;20080;-77
2022/01/20 03:04:02;;;;;;;8.40;2.03;;;8.80;86.70;;;;;;4975643;28;20113;-78
2022/01/20 03:06:28;;;;;;;10.45;1.95;;;8.80;86.70;;;;;;4956824;28;20442;-78
2022/01/20 03:08:53;;;;;;;9.88;2.00;;;8.80;86.70;;;;;;4955972;28;20027;-78
2022/01/20 03:11:19;;;;;;;7.57;1.88;;;8.80;86.80;;;;;;4955906;28;20038;-78
2022/01/20 03:13:44;;;;;;;8.13;2.10;;;8.80;86.80;;;;;;4973581;28;20027;-78
2022/01/20 03:16:10;;;;;;;9.38;2.17;;;8.80;86.70;;;;;;4956247;28;20018;-78
2022/01/20 03:18:36;;;;;;;6.57;1.60;;;8.80;86.80;;;;;;4956085;28;20077;-78
2022/01/20 03:21:01;;;;;;;8.50;1.77;;;8.80;86.70;;;;;;4973259;28;20038;-77
2022/01/20 03:23:27;;;;;;;10.15;1.90;;;8.80;86.80;;;;;;4956080;28;20035;-78
2022/01/20 03:25:53;;;;;;;7.28;1.95;;;8.80;86.80;;;;;;4973438;28;20030;-79
2022/01/20 03:28:18;;;;;;;9.07;1.80;;;8.80;86.80;;;;;;4956174;28;20033;-79
2022/01/20 03:30:44;;;;;;;8.85;1.80;;;8.80;86.80;;;;;;4955831;28;20078;-78
2022/01/20 03:33:10;;;;;;;6.45;1.75;;;8.70;86.70;;;;;;4956114;28;20474;-78
2022/01/20 03:35:35;;;;;;;8.25;2.47;;;8.80;86.70;;;;;;4956004;28;20031;-78
2022/01/20 03:38:01;;;;;;;9.38;1.98;;;8.80;87.20;;;;;;4973029;28;20042;-78
2022/01/20 03:40:27;;;;;;;8.38;2.08;;;8.80;86.70;;;;;;4955997;28;20035;-78
2022/01/20 03:42:53;;;;;;;9.50;2.25;;;8.80;86.70;;;;;;4973022;28;20035;-77
2022/01/20 03:45:18;;;;;;;6.53;1.42;;;8.80;86.70;;;;;;4973177;28;20050;-78
2022/01/20 03:47:44;;;;;;;9.20;1.75;;;8.80;86.70;;;;;;4973143;28;20525;-78
2022/01/20 03:50:59;;;;;;;9.60;1.75;;;8.80;86.70;;;;;;4973092;28;20062;-78
2022/01/20 03:52:55;;;;;;;7.72;1.98;;;8.80;86.70;;;;;;4975266;28;20146;-77
2022/01/20 03:55:21;;;;;;;7.43;1.85;;;8.80;86.70;;;;;;4959089;28;20402;-78
2022/01/20 03:57:47;;;;;;;7.55;1.67;;;8.80;86.70;;;;;;4997585;23;20046;-78
2022/01/20 04:00:13;;;;;;;6.57;1.70;;;8.80;86.80;;;;;;5014706;28;20492;-78
2022/01/20 04:02:39;;;;;;;8.45;1.63;;;8.80;86.80;;;;;;5015055;28;20084;-78
2022/01/20 04:05:05;;;;;;;8.63;1.88;;;8.80;86.80;;;;;;5014510;28;20026;-78
2022/01/20 04:07:30;;;;;;;8.50;1.90;;;8.80;86.70;;;;;;5015544;28;20046;-78
2022/01/20 04:09:56;;;;;;;6.70;1.52;;;8.80;86.80;;;;;;5014230;28;20033;-78
2022/01/20 04:12:21;;;;;;;8.85;1.73;;;8.80;86.90;;;;;;5015208;28;20477;-82
2022/01/20 04:14:48;;;;;;;7.03;1.52;;;8.80;86.80;;;;;;5014240;28;20034;-78
2022/01/20 04:17:19;;;;;;;7.03;1.70;;;8.80;86.90;;;;;;5014082;28;20068;-78
2022/01/20 04:19:45;;;;;;;7.68;1.60;;;8.80;86.80;;;;;;5015422;28;20018;-78
2022/01/20 04:22:11;;;;;;;8.52;1.77;;;8.80;86.80;;;;;;5013808;28;20030;-78
2022/01/20 04:24:37;;;;;;;8.10;1.83;;;8.80;86.80;;;;;;5013920;28;20030;-79
2022/01/20 04:27:04;;;;;;;9.10;1.67;;;8.80;86.80;;;;;;5013893;28;20053;-78
2022/01/20 04:29:30;;;;;;;7.53;1.63;;;8.80;86.90;;;;;;5014039;28;20443;-79
2022/01/20 04:31:55;;;;;;;8.13;1.70;;;8.80;87.40;;;;;;5014963;28;20029;-78
2022/01/20 04:34:22;;;;;;;8.00;1.30;;;8.80;87.40;;;;;;5015103;28;20026;-79
2022/01/20 04:36:50;;;;;;;4.93;1.10;;;8.80;87.00;;;;;;5013824;28;20021;-78
2022/01/20 04:39:21;;;;;;;7.82;1.40;;;8.80;86.90;;;;;;5013738;28;20049;-78
2022/01/20 04:41:47;;;;;;;6.13;1.42;;;8.80;86.90;;;;;;5014752;28;20028;-78
2022/01/20 04:44:30;;;;;;;7.38;1.38;;;8.80;87.00;;;;;;5013696;28;20030;-78
2022/01/20 04:47:06;;;;;;;5.03;1.45;;;8.80;87.10;;;;;;5013624;28;20049;-78
2022/01/20 04:57:43;;;;;;;8.52;1.75;;;8.80;87.00;;;;;;5014690;28;20045;-78
2022/01/20 05:00:09;;;;;;;6.53;1.67;;;8.80;87.00;;;;;;5012636;28;20022;-79
2022/01/20 05:02:35;;;;;;;5.68;1.23;;;8.80;87.00;;;;;;5013705;28;20033;-79
2022/01/20 05:05:00;;;;;;;4.30;1.33;;;8.80;86.90;;;;;;5010419;28;20032;-78
2022/01/20 05:07:28;;;;;;;4.22;1.10;;;8.80;86.90;;;;;;5011584;28;20037;-79
2022/01/20 05:09:56;;;;;;;7.25;1.30;;;8.80;86.90;;;;;;5014187;28;20108;-79
2022/01/20 05:12:29;;;;;;;5.97;1.10;;;8.80;86.90;;;;;;5012425;28;20056;-79
2022/01/20 05:14:54;;;;;;;6.05;1.38;;;8.80;86.90;;;;;;5014207;28;20017;-77
2022/01/20 05:17:20;;;;;;;6.85;1.90;;;8.80;86.80;;;;;;5012355;28;20481;-78
2022/01/20 05:19:46;;;;;;;6.93;1.20;;;8.80;86.80;;;;;;5013473;28;20026;-78
2022/01/20 05:22:11;;;;;;;5.63;1.20;;;8.80;86.80;;;;;;5013268;28;20026;-80
2022/01/20 05:24:37;;;;;;;7.03;1.23;;;8.80;86.70;;;;;;5013862;28;20390;-79
2022/01/20 05:27:02;;;;;;;6.88;1.40;;;8.80;86.70;;;;;;5012484;28;20493;-77
2022/01/20 05:29:28;;;;;;;6.93;1.75;;;8.80;86.70;;;;;;5011563;28;20037;-79
2022/01/20 05:31:54;;;;;;;6.07;1.45;;;8.70;86.60;;;;;;5011906;28;20034;-80
2022/01/20 05:34:20;;;;;;;5.03;1.40;;;8.80;86.70;;;;;;5012634;28;20041;-79
2022/01/20 05:36:47;;;;;;;8.68;1.60;;;8.70;86.70;;;;;;5011903;28;20396;-77
2022/01/20 05:39:13;;;;;;;6.47;1.70;;;8.70;86.70;;;;;;5011920;28;20034;-78
2022/01/20 05:41:39;;;;;;;6.45;1.60;;;8.80;86.50;;;;;;5011308;28;20037;-77
2022/01/20 05:44:05;;;;;;;6.68;1.90;;;8.80;86.60;;;;;;5012332;28;20037;-78
2022/01/20 05:46:42;;;;;;;12.15;1.75;;;8.80;86.60;;;;;;5011560;28;20539;-78
2022/01/20 05:49:09;;;;;;;10.48;1.55;;;8.70;86.50;;;;;;5012654;28;20048;-79
2022/01/20 05:51:36;;;;;;;6.38;1.70;;;8.70;86.50;;;;;;5012285;28;20109;-75
2022/01/20 05:54:02;;;;;;;7.97;1.77;;;8.70;86.40;;;;;;5012555;28;20022;-78
2022/01/20 05:56:27;;;;;;;8.30;1.88;;;8.70;86.30;;;;;;5012544;28;20022;-78
2022/01/20 05:58:53;;;;;;;7.22;1.50;;;8.70;86.10;;;;;;5012109;28;20030;-78
2022/01/20 06:01:18;;;;;;;10.60;2.55;;;8.80;86.20;;;;;;5012419;28;20497;-78
2022/01/20 06:03:44;;;;;;;10.52;1.73;;;8.70;86.20;;;;;;5013500;28;20022;-78
2022/01/20 06:06:12;;;;;;;8.20;1.75;;;8.80;86.20;;;;;;5012325;28;20062;-76
2022/01/20 06:08:39;;;;;;;8.90;1.65;;;8.80;86.20;;;;;;5012277;28;20125;-78
2022/01/20 06:11:05;;;;;;;10.18;2.00;;;8.80;85.90;;;;;;5011928;28;20036;-79
2022/01/20 06:13:31;;;;;;;9.10;1.30;;;8.70;85.40;;;;;;5011940;28;20116;-78
2022/01/20 06:15:57;;;;;;;9.48;1.67;;;8.70;85.60;;;;;;5011997;28;20026;-78
2022/01/20 06:18:23;;;;;;;9.80;1.98;;;8.70;86.20;;;;;;5011977;28;20103;-77
2022/01/20 06:20:49;;;;;;;10.70;1.90;;;8.70;85.80;;;;;;5011880;28;20029;-78
2022/01/20 06:23:15;;;;;;;10.30;1.60;;;8.70;85.90;;;;;;5012153;28;20033;-78
2022/01/20 06:25:41;;;;;;;9.30;1.80;;;8.70;85.90;;;;;;5012046;28;20065;-77
2022/01/20 06:28:07;;;;;;;12.18;2.15;;;8.70;86.00;;;;;;5012075;28;20371;-78
2022/01/20 06:30:34;;;;;;;11.30;2.53;;;8.70;85.20;;;;;;5012997;28;20558;-78
2022/01/20 06:33:00;;;;;;;9.73;2.10;;;8.80;85.20;;;;;;5012018;28;20026;-78
2022/01/20 06:35:26;;;;;;;7.72;2.08;;;8.70;85.30;;;;;;5011588;28;20144;-78
2022/01/20 06:37:51;;;;;;;9.00;1.90;;;8.80;85.40;;;;;;5011764;28;20504;-77
2022/01/20 06:40:17;;;;;;;8.27;2.10;;;8.80;85.60;;;;;;5011784;28;20145;-77
2022/01/20 06:42:43;;;;;;;12.25;1.95;;;8.70;85.60;;;;;;5011622;28;20088;-77
2022/01/20 06:45:11;;;;;;;7.93;1.73;;;8.70;85.60;;;;;;5011678;28;20406;-77
2022/01/20 06:47:37;;;;;;;8.75;1.50;;;8.70;85.70;;;;;;5011667;28;20057;-78
2022/01/20 06:50:04;;;;;;;7.85;2.05;;;8.70;85.70;;;;;;5011522;28;20064;-78
2022/01/20 06:52:30;;;;;;;8.98;1.92;;;8.70;85.70;;;;;;5011448;28;20029;-77
2022/01/20 06:54:55;;;;;;;12.98;2.40;;;8.70;86.30;;;;;;5012964;28;20026;-76
2022/01/20 06:57:21;;;;;;;10.45;1.80;;;8.70;85.80;;;;;;5011543;28;20025;-78
2022/01/20 06:59:47;;;;;;;10.18;2.10;;;8.70;85.80;;;;;;5012903;28;20097;-78
2022/01/20 07:02:13;;;;;;;10.25;2.22;;;8.70;85.80;;;;;;5012642;28;20112;-79
2022/01/20 07:04:38;;;;;;;8.23;1.90;;;8.70;85.80;;;;;;5012919;28;20117;-78
2022/01/20 07:07:05;;;;;;;9.77;1.83;;;8.70;85.90;;;;;;5011731;28;20026;-77
2022/01/20 07:09:32;;;;;;;10.77;2.00;;;8.70;85.90;;;;;;5011634;28;20032;-77
2022/01/20 07:11:59;;;;;;;8.82;1.80;;;8.70;85.80;;;;;;5011250;28;20404;-78
2022/01/20 07:14:24;;;;;;;9.18;1.90;;;8.70;85.70;;;;;;5011632;28;20037;-78
2022/01/20 07:16:50;;;;;;;10.40;2.50;;;8.70;85.70;;;;;;5013022;28;20026;-78
2022/01/20 07:19:16;;;;;;;11.18;2.50;;;8.70;85.70;;;;;;5012799;28;20026;-78
2022/01/20 07:21:43;;;;;;;12.23;2.58;;;8.70;85.70;;;;;;5011398;28;20088;-78
2022/01/20 07:24:08;;;;;;;7.88;1.83;;;8.70;85.50;;;;;;5011547;28;20026;-78
2022/01/20 07:26:34;;;;;;;9.52;2.03;;;8.70;85.50;;;;;;5011897;28;20048;-78
2022/01/20 07:28:59;;;;;;;9.00;2.45;;;8.70;85.40;;;;;;5015331;28;20111;-78
2022/01/20 07:31:25;;;;;;;11.15;1.95;;;8.70;85.30;;;;;;5015073;28;20101;-78
2022/01/20 07:33:51;;;;;;;10.65;2.20;;;8.70;85.20;;;;;;5015246;28;20503;-78
2022/01/20 07:36:17;;;;;;;10.40;2.20;;;8.70;85.30;;;;;;5015297;28;20017;-78
2022/01/20 07:38:43;;;;;;;8.88;2.05;;;8.70;85.20;;;;;;5016411;28;20030;-78
2022/01/20 07:41:09;;;;;;;9.32;2.17;;;8.70;85.20;;;;;;5014995;28;20052;-78
2022/01/20 07:43:35;;;;;;;8.75;1.88;;;8.70;85.30;;;;;;5015022;28;20584;-78
2022/01/20 07:46:01;;;;;;;7.95;1.80;;;8.70;85.40;;;;;;5014921;28;20036;-77
2022/01/20 07:48:26;;;;;;;10.43;2.60;;;8.70;85.40;;;;;;5016225;28;20037;-78
2022/01/20 07:50:52;;;;;;;9.05;1.90;;;8.70;85.40;;;;;;5014823;28;20064;-78
2022/01/20 07:53:17;;;;;;;10.65;2.00;;;8.70;85.30;;;;;;5014897;28;20026;-78
2022/01/20 07:55:43;;;;;;;10.00;1.80;;;8.70;85.30;;;;;;5014806;28;20079;-78
2022/01/20 07:58:08;;;;;;;10.57;2.03;;;8.80;85.40;;;;;;5015673;28;20087;-77
2022/01/20 08:00:34;;;;;;;9.00;1.90;;;8.70;85.30;;;;;;5015905;28;20113;-79
2022/01/20 08:03:00;;;;;;;9.93;2.10;;;8.70;85.30;;;;;;5015916;28;20034;-78
2022/01/20 08:05:25;;;;;;;9.05;2.10;;;8.70;85.40;;;;;;5014777;28;20068;-77
2022/01/20 08:07:51;;;;;;;9.45;2.22;;;8.70;85.40;;;;;;5015884;28;20022;-78
2022/01/20 08:10:16;;;;;;;9.30;1.85;;;8.70;85.30;;;;;;5015705;28;20037;-78
2022/01/20 08:12:43;;;;;;;9.80;2.05;;;8.70;85.30;;;;;;5014726;28;20543;-78
2022/01/20 08:15:12;;;;;;;9.23;2.03;;;8.70;85.10;;;;;;5014442;28;20072;-78
2022/01/20 08:17:39;;;;;;;10.68;2.10;;;8.70;85.00;;;;;;5015637;28;20018;-78
2022/01/20 08:20:06;;;;;;;10.60;2.13;;;8.70;84.90;;;;;;5014549;28;20034;-78
2022/01/20 08:22:34;;;;;;;10.00;2.28;;;8.70;84.80;;;;;;5015682;28;20029;-78
2022/01/20 08:25:01;;;;;;;11.02;2.03;;;8.70;84.90;;;;;;5014344;28;20080;-78
2022/01/20 08:27:27;;;;;;;9.07;2.05;;;8.70;84.90;;;;;;5014355;28;20030;-78
2022/01/20 08:29:52;;;;;;;10.27;2.10;;;8.70;84.80;;;;;;5015335;28;20481;-78
2022/01/20 08:32:19;;;;;;;9.93;1.73;;;8.70;84.80;;;;;;5014241;28;20109;-78
2022/01/20 08:34:44;;;;;;;9.07;1.80;;;8.70;84.70;;;;;;5013941;28;20046;-78
2022/01/20 08:37:10;;;;;;;9.77;1.80;;;8.70;84.60;;;;;;5014196;28;20404;-78
2022/01/20 08:39:40;;;;;;;8.57;2.13;;;8.70;84.70;;;;;;5014086;28;20022;-78
2022/01/20 08:42:06;;;;;;;7.40;1.52;;;8.80;84.70;;;;;;5014988;28;20026;-77
2022/01/20 08:44:31;;;;;;;9.00;2.17;;;8.80;84.70;;;;;;5013915;28;20497;-77
2022/01/20 08:46:58;;;;;;;8.55;1.90;;;8.80;84.50;;;;;;5013905;28;20033;-77
2022/01/20 08:49:24;;;;;;;8.30;1.80;;;8.90;84.30;;;;;;5013910;28;20030;-77
2022/01/20 08:51:51;;;;;;;7.35;1.63;;;9.00;84.20;;;;;;5013542;28;20099;-78
2022/01/20 08:54:16;;;;;;;9.32;2.35;;;9.10;84.20;;;;;;5013825;28;20443;-78
2022/01/20 08:56:42;;;;;;;10.40;1.75;;;9.10;84.00;;;;;;5013655;28;20022;-77
2022/01/20 08:59:09;;;;;;;6.25;1.65;;;9.10;83.70;;;;;;5014851;28;20030;-78
2022/01/20 09:01:36;;;;;;;9.40;1.88;;;9.10;83.30;;;;;;5014696;28;20734;-79
2022/01/20 09:04:02;;;;;;;7.80;1.90;;;9.10;83.30;;;;;;5013498;28;20029;-80
2022/01/20 09:06:27;;;;;;;6.50;1.55;;;9.10;83.40;;;;;;5013623;28;20032;-77
2022/01/20 09:08:53;;;;;;;9.63;2.03;;;9.10;83.50;;;;;;5013419;28;20030;-77
2022/01/20 09:11:22;;;;;;;8.35;2.17;;;9.00;83.60;;;;;;5013304;28;20033;-77
2022/01/20 09:16:33;;;;;;;8.23;1.80;;;8.90;83.60;;;;;;5014933;28;20041;-77
2022/01/20 09:18:59;;;;;;;7.38;1.70;;;8.90;83.70;;;;;;5013252;28;20026;-77
2022/01/20 09:21:26;;;;;;;8.07;1.98;;;8.90;83.70;;;;;;5013089;28;20034;-77
2022/01/20 09:23:51;;;;;;;9.18;2.17;;;8.90;83.80;;;;;;5014385;28;20022;-79
2022/01/20 09:26:17;;;;;;;6.90;1.85;;;8.90;83.80;;;;;;5014429;28;20030;-78
2022/01/20 09:28:43;;;;;;;8.30;1.90;;;8.90;83.70;;;;;;5013097;28;20072;-77
2022/01/20 09:31:10;;;;;;;8.15;1.80;;;8.90;83.80;;;;;;5012829;28;20053;-77
2022/01/20 09:33:35;;;;;;;9.02;1.80;;;8.90;83.90;;;;;;5013170;28;20022;-77
2022/01/20 09:36:07;;;;;;;10.05;2.10;;;8.90;83.80;;;;;;5012686;28;20389;-79
2022/01/20 09:38:33;;;;;;;8.15;1.73;;;9.00;83.70;;;;;;5014137;28;20021;-77
2022/01/20 09:40:59;;;;;;;7.15;1.90;;;8.90;83.60;;;;;;5012638;28;20382;-77
2022/01/20 09:43:25;;;;;;;7.80;1.67;;;9.00;83.50;;;;;;5013948;28;20026;-79
2022/01/20 09:45:55;;;;;;;8.30;2.17;;;9.00;83.40;;;;;;5012889;28;20058;-77
2022/01/20 09:48:24;;;;;;;9.32;1.90;;;9.00;83.30;;;;;;5013982;28;20032;-77
2022/01/20 09:50:51;;;;;;;9.60;2.40;;;9.00;83.30;;;;;;5012042;28;20037;-77
2022/01/20 09:53:16;;;;;;;6.35;1.90;;;9.00;83.40;;;;;;5013792;28;20037;-77
2022/01/20 09:55:42;;;;;;;8.57;1.80;;;8.90;83.40;;;;;;5012647;28;20018;-77
2022/01/20 09:58:10;;;;;;;8.73;2.35;;;8.90;83.40;;;;;;5071044;23;20037;-75
2022/01/20 10:00:39;;;;;;;5.75;1.70;;;9.00;83.40;;;;;;5027999;28;20033;-76
2022/01/20 10:03:09;;;;;;;9.68;2.15;;;9.10;83.40;;;;;;5015421;28;20451;-76
2022/01/20 10:05:45;;;;;;;9.10;1.80;;;9.20;83.00;;;;;;5015404;28;20401;-76
2022/01/20 10:08:16;;;;;;;8.00;1.83;;;9.30;82.70;;;;;;5015346;28;20591;-75
2022/01/20 10:10:45;;;;;;;8.48;1.88;;;9.40;82.30;;;;;;5015126;28;20116;-75
2022/01/20 10:13:11;;;;;;;8.07;1.80;;;9.40;81.80;;;;;;5015248;28;20021;-77
2022/01/20 10:15:38;;;;;;;8.88;1.80;;;9.40;81.80;;;;;;5015257;28;20026;-76
2022/01/20 10:18:10;;;;;;;8.15;1.83;;;9.50;81.70;;;;;;5015159;28;20075;-76
2022/01/20 10:20:37;;;;;;;6.97;2.03;;;9.50;81.70;;;;;;5015004;28;20061;-76
2022/01/20 10:23:03;;;;;;;5.63;1.60;;;9.60;81.40;;;;;;5015145;28;20022;-76
2022/01/20 10:25:34;;;;;;;6.57;1.58;;;9.60;81.40;;;;;;5014957;28;20033;-77
2022/01/20 10:27:59;;;;;;;10.60;2.37;;;9.60;81.20;;;;;;5015068;28;20025;-77
2022/01/20 10:30:27;;;;;;;8.75;2.22;;;9.60;81.00;;;;;;5014853;28;20276;-76
2022/01/20 10:32:59;;;;;;;9.05;2.00;;;9.60;81.30;;;;;;5032344;28;20079;-76
2022/01/20 10:35:27;;;;;;;7.30;1.73;;;9.60;81.40;;;;;;5032360;28;20096;-77
2022/01/20 10:37:58;;;;;;;10.80;2.22;;;9.50;81.40;;;;;;5014947;28;20030;-77
2022/01/20 10:40:25;;;;;;;9.20;2.17;;;9.40;81.30;;;;;;5014983;28;20495;-76
2022/01/20 10:42:51;;;;;;;9.50;2.05;;;9.40;81.40;;;;;;5032252;28;20497;-76
2022/01/20 10:45:28;;;;;;;8.90;1.80;;;9.30;81.30;;;;;;5014816;28;20060;-77
2022/01/20 10:47:57;;;;;;;7.80;2.15;;;9.30;81.20;;;;;;5014786;28;20596;-76
2022/01/20 10:50:31;;;;;;;6.75;1.50;;;9.30;81.30;;;;;;5014730;28;20106;-76
2022/01/20 10:52:57;;;;;;;9.15;1.90;;;9.20;81.30;;;;;;5014640;28;20021;-76
2022/01/20 10:55:35;;;;;;;9.52;2.08;;;9.20;81.50;;;;;;5014777;28;20049;-76
2022/01/20 10:58:16;;;;;;;7.95;1.95;;;9.20;81.50;;;;;;5014482;28;20032;-75
2022/01/20 11:00:45;;;;;;;8.10;2.15;;;9.20;81.60;;;;;;5032160;28;20091;-76
2022/01/20 11:03:11;;;;;;;9.90;1.95;;;9.20;81.70;;;;;;5035557;28;20029;-75
2022/01/20 11:05:38;;;;;;;6.47;1.65;;;9.10;81.70;;;;;;5036415;28;20488;-75
2022/01/20 11:08:05;;;;;;;8.82;1.85;;;9.10;81.90;;;;;;5018631;28;20037;-76
2022/01/20 11:10:31;;;;;;;7.15;1.83;;;9.10;82.00;;;;;;5018477;28;20122;-74
2022/01/20 11:12:57;;;;;;;9.00;1.67;;;9.10;82.20;;;;;;5018499;28;20025;-76
2022/01/20 11:15:24;;;;;;;8.27;2.15;;;9.10;82.20;;;;;;5018639;28;20081;-76
2022/01/20 11:17:55;;;;;;;12.35;2.53;;;9.10;82.20;;;;;;5018545;28;20374;-75
2022/01/20 11:20:23;;;;;;;9.80;1.95;;;9.10;82.20;;;;;;5018422;28;20120;-76
2022/01/20 11:23:02;;;;;;;6.82;1.95;;;9.10;82.10;;;;;;5018276;28;20025;-76
2022/01/20 11:25:30;;;;;;;9.73;1.95;;;9.10;82.10;;;;;;5018477;28;20458;-75
2022/01/20 11:28:10;;;;;;;10.15;2.50;;;9.10;82.10;;;;;;5018370;28;20029;-76
2022/01/20 11:30:39;;;;;;;6.95;1.73;;;9.10;82.20;;;;;;5018007;28;20498;-75
2022/01/20 11:33:15;;;;;;;6.85;1.63;;;9.10;82.30;;;;;;5035872;28;20018;-77
2022/01/20 11:35:50;;;;;;;8.23;1.92;;;9.10;82.40;;;;;;5035690;28;20159;-76
2022/01/20 11:38:22;;;;;;;9.50;2.13;;;9.10;82.30;;;;;;5035751;28;20029;-76
2022/01/20 11:41:00;;;;;;;7.88;1.85;;;9.00;82.10;;;;;;5035590;28;20030;-76
2022/01/20 11:43:52;;;;;;;9.95;2.30;;;9.10;82.20;;;;;;5017964;28;20033;-76
2022/01/20 11:46:22;;;;;;;6.88;1.73;;;9.10;82.10;;;;;;5031444;28;20041;-76
2022/01/20 11:48:53;;;;;;;8.57;2.00;;;9.00;81.90;;;;;;5035540;28;20029;-77
2022/01/20 11:51:19;;;;;;;9.43;1.80;;;9.10;82.00;;;;;;5035387;28;20500;-75
2022/01/20 11:53:54;;;;;;;10.10;2.00;;;9.10;82.00;;;;;;5035621;28;20263;-75
2022/01/20 11:56:34;;;;;;;9.20;1.67;;;9.10;81.90;;;;;;5017727;28;20025;-77
2022/01/20 11:59:02;;;;;;;7.95;1.80;;;9.00;81.70;;;;;;5035311;28;20030;-75
2022/01/20 12:01:30;;;;;;;10.45;2.20;;;9.00;81.70;;;;;;5017465;28;20029;-76
2022/01/20 12:03:56;;;;;;;7.43;1.50;;;9.00;81.70;;;;;;5017654;28;20558;-76
2022/01/20 12:06:25;;;;;;;6.28;2.00;;;9.00;81.70;;;;;;5035269;28;20033;-75
2022/01/20 12:08:59;;;;;;;7.65;1.73;;;9.00;81.70;;;;;;5035235;28;20021;-75
2022/01/20 12:11:57;;;;;;;10.35;2.08;;;9.00;81.80;;;;;;5017615;28;20032;-75
2022/01/20 12:14:38;;;;;;;9.40;1.98;;;9.00;81.80;;;;;;4980461;28;20037;-75
2022/01/20 12:17:09;;;;;;;;;;;9.00;81.60;;;;;;5017810;28;20452;-75
2022/01/20 12:19:35;;;;;;;8.13;2.00;;;9.00;81.50;;;;;;5017432;28;20284;-76
2022/01/20 12:22:03;;;;;;;6.80;1.90;;;9.00;81.40;;;;;;5034790;28;20025;-75
2022/01/20 12:24:29;;;;;;;7.60;1.77;;;9.00;81.30;;;;;;5017249;28;20052;-75
2022/01/20 12:26:55;;;;;;;6.45;1.48;;;9.00;81.30;;;;;;5034872;28;20452;-76
2022/01/20 12:29:20;;;;;;;7.28;1.80;;;9.00;81.30;;;;;;5034606;28;20512;-76
2022/01/20 12:31:53;;;;;;;9.38;2.10;;;9.00;81.20;;;;;;5034805;28;20096;-76
2022/01/20 12:34:19;;;;;;;10.23;2.20;;;9.00;81.30;;;;;;5034657;28;20025;-76
2022/01/20 12:36:58;;;;;;;6.93;1.67;;;8.90;81.30;;;;;;5017012;28;20056;-77
2022/01/20 12:39:28;;;;;;;9.57;1.83;;;8.90;81.30;;;;;;5034676;28;20028;-75
2022/01/20 12:41:56;;;;;;;9.63;1.90;;;9.00;81.40;;;;;;5016772;28;20060;-76
2022/01/20 12:44:21;;;;;;;6.15;1.60;;;9.00;81.40;;;;;;5034601;28;20484;-76
2022/01/20 12:46:47;;;;;;;8.52;1.90;;;9.00;81.40;;;;;;5016763;28;20052;-77
2022/01/20 12:49:18;;;;;;;6.75;1.52;;;9.00;81.60;;;;;;5016825;28;20025;-76
2022/01/20 12:51:54;;;;;;;10.30;1.85;;;9.10;81.50;;;;;;5016462;28;20125;-77
2022/01/20 12:54:28;;;;;;;9.25;1.70;;;9.10;81.60;;;;;;5034478;28;20017;-77
2022/01/20 12:57:00;;;;;;;9.13;1.80;;;9.20;81.40;;;;;;5034417;28;20120;-76
2022/01/20 12:59:27;;;;;;;9.32;1.90;;;9.30;81.30;;;;;;5016479;28;20037;-75
2022/01/20 13:01:56;;;;;;;7.15;1.90;;;9.30;80.90;;;;;;5016410;28;20396;-76
2022/01/20 13:04:25;;;;;;;6.38;1.58;;;9.20;80.70;;;;;;5016543;28;20037;-76
2022/01/20 13:07:02;;;;;;;10.60;1.92;;;9.20;80.70;;;;;;5016445;28;20558;-76
2022/01/20 13:09:43;;;;;;;8.65;1.58;;;9.10;80.90;;;;;;5034234;28;20026;-76
2022/01/20 13:12:14;;;;;;;7.72;1.73;;;9.10;81.00;;;;;;5016200;28;20450;-76
2022/01/20 13:14:42;;;;;;;7.85;1.65;;;9.10;81.20;;;;;;5016302;28;20029;-77
2022/01/20 13:17:11;;;;;;;10.30;1.88;;;9.00;81.20;;;;;;5034041;28;20485;-75
2022/01/20 13:19:45;;;;;;;8.13;2.00;;;9.10;81.40;;;;;;5033845;28;20022;-76
2022/01/20 13:22:43;;;;;;;8.15;1.80;;;9.10;81.40;;;;;;5033826;28;20025;-76
2022/01/20 13:25:11;;;;;;;5.72;1.80;;;9.00;81.30;;;;;;5015271;28;20061;-76
2022/01/20 13:27:48;;;;;;;9.13;1.88;;;9.00;81.80;;;;;;5033718;28;20057;-76
2022/01/20 13:30:28;;;;;;;9.13;1.85;;;9.00;81.30;;;;;;5015978;28;20067;-76
2022/01/20 13:32:54;;;;;;;9.30;1.52;;;9.00;81.40;;;;;;5015858;28;20082;-75
2022/01/20 13:35:20;;;;;;;7.70;1.42;;;9.00;81.60;;;;;;5015766;28;20071;-76
2022/01/20 13:37:55;;;;;;;8.95;1.88;;;8.90;81.50;;;;;;5033572;28;20562;-75
2022/01/20 13:40:21;;;;;;;6.97;1.83;;;9.00;81.60;;;;;;5015915;28;20115;-75
2022/01/20 13:45:45;;;;;;;6.30;1.40;;;9.00;81.70;;;;;;4996844;28;20521;-76
2022/01/20 13:48:25;;;;;;;4.75;1.30;;;9.00;81.70;;;;;;5015765;28;20032;-76
2022/01/20 13:50:55;;;;;;;4.40;1.10;;;9.00;81.70;;;;;;5015449;28;20068;-76
2022/01/20 13:53:24;;;;;;;7.15;1.67;;;9.00;81.70;;;;;;5015810;28;20072;-77
2022/01/20 13:55:50;;;;;;;5.38;1.52;;;9.00;81.60;;;;;;5015633;28;20021;-75
2022/01/20 13:58:33;;;;;;;8.77;2.10;;;9.00;81.60;;;;;;5015117;28;20079;-77
2022/01/20 14:01:01;;;;;;;4.30;1.10;;;9.00;81.70;;;;;;5015335;28;20026;-76
2022/01/20 14:03:27;;;;;;;7.75;1.67;;;9.00;81.80;;;;;;5015410;28;20396;-77
2022/01/20 14:05:55;;;;;;;5.78;1.27;;;9.00;82.00;;;;;;5033132;28;20097;-76